createdAt,value
2017-09-14T00:00:13.445Z,948.72
2017-09-14T00:01:13.519Z,948.68
2017-09-14T00:02:13.494Z,948.75
2017-09-14T00:03:13.516Z,948.71
2017-09-14T00:04:13.544Z,948.69
2017-09-14T00:05:13.562Z,948.68
2017-09-14T00:06:13.586Z,948.72
2017-09-14T00:07:13.615Z,948.72
2017-09-14T00:08:13.633Z,948.75
2017-09-14T00:09:13.662Z,948.72
2017-09-14T00:10:13.680Z,948.71
2017-09-14T00:11:13.706Z,948.68
2017-09-14T00:12:13.731Z,948.73
2017-09-14T00:13:13.755Z,948.66
2017-09-14T00:14:13.775Z,948.64
2017-09-14T00:15:13.799Z,948.69
2017-09-14T00:16:13.822Z,948.68
2017-09-14T00:17:13.900Z,948.69
2017-09-14T00:18:13.873Z,948.69
2017-09-14T00:19:13.896Z,948.69
2017-09-14T00:20:13.914Z,948.67
2017-09-14T00:21:13.940Z,948.68
2017-09-14T00:22:13.962Z,948.7
2017-09-14T00:23:13.985Z,948.66
2017-09-14T00:24:14.011Z,948.66
2017-09-14T00:25:14.033Z,948.7
2017-09-14T00:26:14.058Z,948.62
2017-09-14T00:27:14.079Z,948.64
2017-09-14T00:28:14.102Z,948.67
2017-09-14T00:29:14.133Z,948.64
2017-09-14T00:30:14.150Z,948.67
2017-09-14T00:31:14.177Z,948.57
2017-09-14T00:32:14.203Z,948.59
2017-09-14T00:33:14.220Z,948.58
2017-09-14T00:34:14.243Z,948.62
2017-09-14T00:35:14.317Z,948.58
2017-09-14T00:36:14.290Z,948.56
2017-09-14T00:37:14.316Z,948.54
2017-09-14T00:38:14.335Z,948.58
2017-09-14T00:39:14.361Z,948.57
2017-09-14T00:40:14.386Z,948.59
2017-09-14T00:41:14.411Z,948.58
2017-09-14T00:42:14.428Z,948.56
2017-09-14T00:43:14.458Z,948.53
2017-09-14T00:44:14.477Z,948.5
2017-09-14T00:45:14.499Z,948.49
2017-09-14T00:46:14.522Z,948.49
2017-09-14T00:47:14.548Z,948.48
2017-09-14T00:48:14.571Z,948.44
2017-09-14T00:49:14.596Z,948.41
2017-09-14T00:50:14.667Z,948.44
2017-09-14T00:51:14.639Z,948.4
2017-09-14T00:52:14.662Z,948.42
2017-09-14T00:53:14.687Z,948.43
2017-09-14T00:54:14.713Z,948.42
2017-09-14T00:55:14.734Z,948.45
2017-09-14T00:56:14.756Z,948.45
2017-09-14T00:57:14.780Z,948.45
2017-09-14T00:58:14.802Z,948.49
2017-09-14T00:59:14.828Z,948.46
2017-09-14T01:00:14.858Z,948.44
2017-09-14T01:01:14.875Z,948.41
2017-09-14T01:02:14.896Z,948.42
2017-09-14T01:03:14.921Z,948.45
2017-09-14T01:04:14.942Z,948.47
2017-09-14T01:05:14.966Z,948.46
2017-09-14T01:06:14.991Z,948.51
2017-09-14T01:07:15.013Z,948.47
2017-09-14T01:08:15.036Z,948.42
2017-09-14T01:09:15.114Z,948.5
2017-09-14T01:10:15.089Z,948.49
2017-09-14T01:11:15.114Z,948.45
2017-09-14T01:12:15.132Z,948.38
2017-09-14T01:13:15.158Z,948.43
2017-09-14T01:14:15.175Z,948.36
2017-09-14T01:15:15.203Z,948.27
2017-09-14T01:16:15.232Z,948.31
2017-09-14T01:17:15.246Z,948.37
2017-09-14T01:18:15.270Z,948.33
2017-09-14T01:19:15.294Z,948.28
2017-09-14T01:20:15.317Z,948.3
2017-09-14T01:21:15.341Z,948.3
2017-09-14T01:22:15.362Z,948.21
2017-09-14T01:23:15.386Z,948.13
2017-09-14T01:24:15.409Z,948.14
2017-09-14T01:25:15.432Z,948.11
2017-09-14T01:26:15.512Z,948.14
2017-09-14T01:27:15.481Z,948.12
2017-09-14T01:28:15.503Z,948.08
2017-09-14T01:29:15.529Z,948.09
2017-09-14T01:30:15.551Z,948.03
2017-09-14T01:31:15.579Z,948.01
2017-09-14T01:32:15.599Z,948.02
2017-09-14T01:33:15.620Z,948.04
2017-09-14T01:34:15.646Z,948.01
2017-09-14T01:35:15.666Z,947.92
2017-09-14T01:36:15.694Z,947.93
2017-09-14T01:37:15.713Z,947.92
2017-09-14T01:38:15.736Z,947.92
2017-09-14T01:39:15.760Z,947.89
2017-09-14T01:40:15.795Z,947.89
2017-09-14T01:41:15.805Z,947.9
2017-09-14T01:42:15.830Z,947.87
2017-09-14T01:43:15.854Z,947.88
2017-09-14T01:44:15.876Z,947.86
2017-09-14T01:45:15.902Z,947.82
2017-09-14T01:46:15.923Z,947.83
2017-09-14T01:47:15.947Z,947.85
2017-09-14T01:48:15.969Z,947.82
2017-09-14T01:49:15.992Z,947.81
2017-09-14T01:50:16.037Z,947.75
2017-09-14T01:51:16.038Z,947.74
2017-09-14T01:52:16.069Z,947.74
2017-09-14T01:53:16.086Z,947.74
2017-09-14T01:54:16.106Z,947.73
2017-09-14T01:55:16.130Z,947.74
2017-09-14T01:56:16.157Z,947.79
2017-09-14T01:57:16.177Z,947.75
2017-09-14T01:58:16.199Z,947.78
2017-09-14T01:59:16.221Z,947.72
2017-09-14T02:00:16.247Z,947.68
2017-09-14T02:01:16.318Z,947.7
2017-09-14T02:02:16.301Z,947.72
2017-09-14T02:03:16.313Z,947.73
2017-09-14T02:04:16.337Z,947.71
2017-09-14T02:05:16.359Z,947.67
2017-09-14T02:06:16.382Z,947.72
2017-09-14T02:07:16.409Z,947.68
2017-09-14T02:08:16.430Z,947.71
2017-09-14T02:09:16.453Z,947.75
2017-09-14T02:10:16.482Z,947.71
2017-09-14T02:11:16.497Z,947.66
2017-09-14T02:12:16.530Z,947.66
2017-09-14T02:13:16.546Z,947.64
2017-09-14T02:14:16.565Z,947.69
2017-09-14T02:15:16.592Z,947.68
2017-09-14T02:16:16.661Z,947.68
2017-09-14T02:17:16.634Z,947.66
2017-09-14T02:18:16.655Z,947.71
2017-09-14T02:19:16.677Z,947.65
2017-09-14T02:20:16.700Z,947.65
2017-09-14T02:21:16.725Z,947.63
2017-09-14T02:22:16.748Z,947.66
2017-09-14T02:23:16.770Z,947.65
2017-09-14T02:24:16.792Z,947.6
2017-09-14T02:25:16.818Z,947.59
2017-09-14T02:26:16.837Z,947.65
2017-09-14T02:27:16.858Z,947.59
2017-09-14T02:28:16.883Z,947.62
2017-09-14T02:29:16.909Z,947.6
2017-09-14T02:30:16.928Z,947.62
2017-09-14T02:31:16.950Z,947.61
2017-09-14T02:32:16.971Z,947.55
2017-09-14T02:33:17.000Z,947.58
2017-09-14T02:34:17.021Z,947.59
2017-09-14T02:35:17.046Z,947.62
2017-09-14T02:36:17.062Z,947.55
2017-09-14T02:37:17.089Z,947.6
2017-09-14T02:38:17.108Z,947.57
2017-09-14T02:39:17.134Z,947.59
2017-09-14T02:40:17.152Z,947.55
2017-09-14T02:41:17.176Z,947.58
2017-09-14T02:42:17.198Z,947.61
2017-09-14T02:43:17.221Z,947.59
2017-09-14T02:44:17.247Z,947.53
2017-09-14T02:45:17.267Z,947.6
2017-09-14T02:46:17.286Z,947.54
2017-09-14T02:47:17.313Z,947.52
2017-09-14T02:48:17.343Z,947.53
2017-09-14T02:49:17.355Z,947.52
2017-09-14T02:50:17.378Z,947.51
2017-09-14T02:51:17.450Z,947.46
2017-09-14T02:52:17.431Z,947.43
2017-09-14T02:53:17.447Z,947.41
2017-09-14T02:54:17.471Z,947.42
2017-09-14T02:55:17.492Z,947.39
2017-09-14T02:56:17.531Z,947.38
2017-09-14T02:57:17.536Z,947.35
2017-09-14T02:58:17.559Z,947.37
2017-09-14T02:59:17.583Z,947.33
2017-09-14T03:00:17.605Z,947.29
2017-09-14T03:01:17.631Z,947.29
2017-09-14T03:02:17.651Z,947.25
2017-09-14T03:03:17.674Z,947.28
2017-09-14T03:04:17.695Z,947.27
2017-09-14T03:05:17.719Z,947.26
2017-09-14T03:06:17.791Z,947.31
2017-09-14T03:07:17.763Z,947.29
2017-09-14T03:08:17.790Z,947.3
2017-09-14T03:09:17.810Z,947.31
2017-09-14T03:10:17.836Z,947.36
2017-09-14T03:11:17.859Z,947.36
2017-09-14T03:12:17.878Z,947.33
2017-09-14T03:13:17.899Z,947.36
2017-09-14T03:14:17.923Z,947.36
2017-09-14T03:15:17.945Z,947.34
2017-09-14T03:16:17.968Z,947.35
2017-09-14T03:17:17.991Z,947.35
2017-09-14T03:18:18.015Z,947.34
2017-09-14T03:19:18.039Z,947.37
2017-09-14T03:20:18.078Z,947.36
2017-09-14T03:21:18.084Z,947.44
2017-09-14T03:22:18.109Z,947.47
2017-09-14T03:23:18.127Z,947.45
2017-09-14T03:24:18.152Z,947.43
2017-09-14T03:25:18.174Z,947.43
2017-09-14T03:26:18.196Z,947.45
2017-09-14T03:27:18.219Z,947.43
2017-09-14T03:28:18.243Z,947.42
2017-09-14T03:29:18.270Z,947.41
2017-09-14T03:30:18.285Z,947.42
2017-09-14T03:31:18.307Z,947.41
2017-09-14T03:32:18.329Z,947.39
2017-09-14T03:33:18.356Z,947.37
2017-09-14T03:34:18.380Z,947.39
2017-09-14T03:35:18.403Z,947.37
2017-09-14T03:36:18.420Z,947.36
2017-09-14T03:37:18.442Z,947.27
2017-09-14T03:38:18.466Z,947.27
2017-09-14T03:39:18.540Z,947.27
2017-09-14T03:40:18.512Z,947.28
2017-09-14T03:41:18.538Z,947.29
2017-09-14T03:42:18.554Z,947.28
2017-09-14T03:43:18.579Z,947.29
2017-09-14T03:44:18.603Z,947.34
2017-09-14T03:45:18.627Z,947.25
2017-09-14T03:46:18.645Z,947.23
2017-09-14T03:47:18.669Z,947.21
2017-09-14T03:48:18.693Z,947.28
2017-09-14T03:49:18.714Z,947.28
2017-09-14T03:50:18.755Z,947.13
2017-09-14T03:51:18.756Z,947.16
2017-09-14T03:52:18.780Z,947.1
2017-09-14T03:53:18.805Z,947.11
2017-09-14T03:54:18.877Z,947.1
2017-09-14T03:55:18.846Z,947.16
2017-09-14T03:56:18.870Z,947.14
2017-09-14T03:57:18.901Z,947.16
2017-09-14T03:58:18.916Z,947.14
2017-09-14T03:59:18.938Z,947.17
2017-09-14T04:00:18.958Z,947.17
2017-09-14T04:01:18.983Z,947.22
2017-09-14T04:02:19.004Z,947.16
2017-09-14T04:03:19.027Z,947.18
2017-09-14T04:04:19.049Z,947.22
2017-09-14T04:05:19.078Z,947.26
2017-09-14T04:06:19.144Z,947.21
2017-09-14T04:07:19.116Z,947.2
2017-09-14T04:08:19.137Z,947.17
2017-09-14T04:09:19.161Z,947.12
2017-09-14T04:10:19.187Z,947.19
2017-09-14T04:11:19.258Z,947.19
2017-09-14T04:12:19.231Z,947.23
2017-09-14T04:13:19.257Z,947.2
2017-09-14T04:14:19.275Z,947.21
2017-09-14T04:15:19.297Z,947.18
2017-09-14T04:16:19.367Z,947.2
2017-09-14T04:17:19.338Z,947.23
2017-09-14T04:18:19.360Z,947.24
2017-09-14T04:19:19.381Z,947.22
2017-09-14T04:20:19.404Z,947.2
2017-09-14T04:21:19.527Z,947.2
2017-09-14T04:22:19.450Z,947.21
2017-09-14T04:23:19.471Z,947.17
2017-09-14T04:24:19.499Z,947.2
2017-09-14T04:25:19.514Z,947.2
2017-09-14T04:26:19.537Z,947.18
2017-09-14T04:27:19.558Z,947.24
2017-09-14T04:28:19.586Z,947.22
2017-09-14T04:29:19.603Z,947.21
2017-09-14T04:30:19.628Z,947.23
2017-09-14T04:31:19.648Z,947.22
2017-09-14T04:32:19.671Z,947.2
2017-09-14T04:33:19.694Z,947.19
2017-09-14T04:34:19.716Z,947.17
2017-09-14T04:35:19.736Z,947.2
2017-09-14T04:36:19.767Z,947.21
2017-09-14T04:37:19.782Z,947.15
2017-09-14T04:38:19.803Z,947.15
2017-09-14T04:39:19.877Z,947.14
2017-09-14T04:40:19.847Z,947.17
2017-09-14T04:41:19.871Z,947.12
2017-09-14T04:42:19.893Z,947.12
2017-09-14T04:43:19.928Z,947.11
2017-09-14T04:44:19.951Z,947.12
2017-09-14T04:45:19.960Z,947.16
2017-09-14T04:46:19.981Z,947.15
2017-09-14T04:47:20.010Z,947.09
2017-09-14T04:48:20.032Z,947.14
2017-09-14T04:49:20.050Z,947.09
2017-09-14T04:50:20.071Z,947.14
2017-09-14T04:51:20.098Z,947.09
2017-09-14T04:52:20.119Z,947.1
2017-09-14T04:53:20.144Z,947.11
2017-09-14T04:54:20.162Z,947.14
2017-09-14T04:55:20.234Z,947.12
2017-09-14T04:56:20.209Z,947.12
2017-09-14T04:57:20.227Z,947.12
2017-09-14T04:58:20.251Z,947.06
2017-09-14T04:59:20.277Z,947.01
2017-09-14T05:00:20.348Z,947.01
2017-09-14T05:01:20.319Z,947.03
2017-09-14T05:02:20.338Z,946.98
2017-09-14T05:03:20.363Z,947.03
2017-09-14T05:04:20.383Z,947.03
2017-09-14T05:05:20.410Z,946.98
2017-09-14T05:06:20.428Z,947.05
2017-09-14T05:07:20.452Z,947.09
2017-09-14T05:08:20.474Z,947.05
2017-09-14T05:09:20.501Z,947.04
2017-09-14T05:10:20.517Z,947.03
2017-09-14T05:11:20.541Z,947.04
2017-09-14T05:12:20.562Z,947.03
2017-09-14T05:13:20.587Z,947.05
2017-09-14T05:14:20.610Z,947.03
2017-09-14T05:15:20.628Z,947.07
2017-09-14T05:16:20.656Z,947.06
2017-09-14T05:17:20.676Z,947.03
2017-09-14T05:18:20.749Z,947.01
2017-09-14T05:19:20.722Z,947.01
2017-09-14T05:20:20.741Z,946.94
2017-09-14T05:21:20.764Z,946.88
2017-09-14T05:22:20.790Z,946.94
2017-09-14T05:23:20.811Z,946.93
2017-09-14T05:24:20.835Z,946.9
2017-09-14T05:25:20.855Z,946.95
2017-09-14T05:26:20.878Z,946.93
2017-09-14T05:27:20.899Z,946.95
2017-09-14T05:28:20.922Z,946.95
2017-09-14T05:29:20.943Z,946.93
2017-09-14T05:30:21.008Z,946.89
2017-09-14T05:31:20.993Z,946.91
2017-09-14T05:32:21.013Z,946.95
2017-09-14T05:33:21.085Z,946.92
2017-09-14T05:34:21.058Z,947
2017-09-14T05:35:21.079Z,946.97
2017-09-14T05:36:21.106Z,946.99
2017-09-14T05:37:21.137Z,946.98
2017-09-14T05:38:21.158Z,946.96
2017-09-14T05:39:21.193Z,946.96
2017-09-14T05:40:21.201Z,946.98
2017-09-14T05:41:21.217Z,946.93
2017-09-14T05:42:21.238Z,946.94
2017-09-14T05:43:21.260Z,946.91
2017-09-14T05:44:21.340Z,946.96
2017-09-14T05:45:21.306Z,946.98
2017-09-14T05:46:21.328Z,946.94
2017-09-14T05:47:21.350Z,946.89
2017-09-14T05:48:21.374Z,946.97
2017-09-14T05:49:21.452Z,946.92
2017-09-14T05:50:21.420Z,946.92
2017-09-14T05:51:21.446Z,946.98
2017-09-14T05:52:21.464Z,946.98
2017-09-14T05:53:21.493Z,946.97
2017-09-14T05:54:21.512Z,946.96
2017-09-14T05:55:21.531Z,946.94
2017-09-14T05:56:21.553Z,946.98
2017-09-14T05:57:21.576Z,946.99
2017-09-14T05:58:21.602Z,946.98
2017-09-14T05:59:21.622Z,946.97
2017-09-14T06:00:21.644Z,946.98
2017-09-14T06:01:21.666Z,946.93
2017-09-14T06:02:21.692Z,946.99
2017-09-14T06:03:21.714Z,946.96
2017-09-14T06:04:21.734Z,946.96
2017-09-14T06:05:21.757Z,946.99
2017-09-14T06:06:21.889Z,946.99
2017-09-14T06:07:21.808Z,946.93
2017-09-14T06:08:21.827Z,946.89
2017-09-14T06:09:21.848Z,946.99
2017-09-14T06:10:21.873Z,946.92
2017-09-14T06:11:21.895Z,946.92
2017-09-14T06:12:21.917Z,946.87
2017-09-14T06:13:21.939Z,946.88
2017-09-14T06:14:21.963Z,946.8
2017-09-14T06:15:21.990Z,946.82
2017-09-14T06:16:22.012Z,946.82
2017-09-14T06:17:22.031Z,946.83
2017-09-14T06:18:22.057Z,946.77
2017-09-14T06:19:22.084Z,946.75
2017-09-14T06:20:22.102Z,946.72
2017-09-14T06:21:22.172Z,946.74
2017-09-14T06:22:22.148Z,946.79
2017-09-14T06:23:22.170Z,946.77
2017-09-14T06:24:22.213Z,946.83
2017-09-14T06:25:22.222Z,946.81
2017-09-14T06:26:22.242Z,946.82
2017-09-14T06:27:22.261Z,946.79
2017-09-14T06:28:22.287Z,946.74
2017-09-14T06:29:22.323Z,946.75
2017-09-14T06:30:22.332Z,946.72
2017-09-14T06:31:22.355Z,946.71
2017-09-14T06:32:22.379Z,946.69
2017-09-14T06:33:22.403Z,946.7
2017-09-14T06:34:22.425Z,946.73
2017-09-14T06:35:22.456Z,946.67
2017-09-14T06:36:22.474Z,946.69
2017-09-14T06:37:22.494Z,946.64
2017-09-14T06:38:22.518Z,946.67
2017-09-14T06:39:22.543Z,946.64
2017-09-14T06:40:22.565Z,946.64
2017-09-14T06:41:22.591Z,946.64
2017-09-14T06:42:22.617Z,946.62
2017-09-14T06:43:22.636Z,946.64
2017-09-14T06:44:22.659Z,946.66
2017-09-14T06:45:22.683Z,946.67
2017-09-14T06:46:22.707Z,946.7
2017-09-14T06:47:22.730Z,946.66
2017-09-14T06:48:22.756Z,946.64
2017-09-14T06:49:22.778Z,946.59
2017-09-14T06:50:22.799Z,946.57
2017-09-14T06:51:22.824Z,946.59
2017-09-14T06:52:22.854Z,946.55
2017-09-14T06:53:22.871Z,946.56
2017-09-14T06:54:22.903Z,946.59
2017-09-14T06:55:22.934Z,946.6
2017-09-14T06:56:22.943Z,946.57
2017-09-14T06:57:22.983Z,946.54
2017-09-14T06:58:22.993Z,946.62
2017-09-14T06:59:23.018Z,946.6
2017-09-14T07:00:23.038Z,946.67
2017-09-14T07:01:23.062Z,946.6
2017-09-14T07:02:23.086Z,946.66
2017-09-14T07:03:23.116Z,946.71
2017-09-14T07:04:23.135Z,946.75
2017-09-14T07:05:23.159Z,946.7
2017-09-14T07:06:23.183Z,946.7
2017-09-14T07:07:23.208Z,946.74
2017-09-14T07:08:23.238Z,946.72
2017-09-14T07:09:23.257Z,946.74
2017-09-14T07:10:23.283Z,946.71
2017-09-14T07:11:23.307Z,946.73
2017-09-14T07:12:23.329Z,946.74
2017-09-14T07:13:23.359Z,946.76
2017-09-14T07:14:23.381Z,946.74
2017-09-14T07:15:23.409Z,946.73
2017-09-14T07:16:23.429Z,946.73
2017-09-14T07:17:23.454Z,946.83
2017-09-14T07:18:23.480Z,946.75
2017-09-14T07:19:23.505Z,946.72
2017-09-14T07:20:23.529Z,946.68
2017-09-14T07:21:23.555Z,946.7
2017-09-14T07:22:23.584Z,946.73
2017-09-14T07:23:23.604Z,946.74
2017-09-14T07:24:23.628Z,946.74
2017-09-14T07:25:23.655Z,946.73
2017-09-14T07:26:23.684Z,946.71
2017-09-14T07:27:23.705Z,946.71
2017-09-14T07:28:23.734Z,946.77
2017-09-14T07:29:23.754Z,946.73
2017-09-14T07:30:23.832Z,946.7
2017-09-14T07:31:23.806Z,946.76
2017-09-14T07:32:23.836Z,946.75
2017-09-14T07:33:23.859Z,946.71
2017-09-14T07:34:24.093Z,946.68
2017-09-14T07:35:23.931Z,946.66
2017-09-14T07:36:23.933Z,946.73
2017-09-14T07:37:23.961Z,946.78
2017-09-14T07:38:23.985Z,946.74
2017-09-14T07:39:24.010Z,946.74
2017-09-14T07:40:24.129Z,946.79
2017-09-14T07:41:24.062Z,946.71
2017-09-14T07:42:24.111Z,946.76
2017-09-14T07:43:24.297Z,946.77
2017-09-14T07:44:24.166Z,946.87
2017-09-14T07:45:24.434Z,946.99
2017-09-14T07:46:24.341Z,946.99
2017-09-14T07:47:24.243Z,946.92
2017-09-14T07:48:24.244Z,946.89
2017-09-14T07:49:24.280Z,946.96
2017-09-14T07:50:24.316Z,947
2017-09-14T07:51:24.318Z,946.96
2017-09-14T07:52:24.350Z,946.93
2017-09-14T07:53:24.368Z,947
2017-09-14T07:54:24.422Z,947.08
2017-09-14T07:55:24.422Z,947.05
2017-09-14T07:56:24.446Z,947.18
2017-09-14T07:57:24.516Z,947.19
2017-09-14T07:58:24.678Z,947.36
2017-09-14T07:59:24.528Z,947.31
2017-09-14T08:00:24.549Z,947.35
2017-09-14T08:01:24.577Z,947.36
2017-09-14T08:02:24.603Z,947.36
2017-09-14T08:03:24.629Z,947.25
2017-09-14T08:04:24.655Z,947.36
2017-09-14T08:05:24.723Z,947.46
2017-09-14T08:06:24.708Z,947.48
2017-09-14T08:07:24.731Z,947.55
2017-09-14T08:08:24.761Z,947.62
2017-09-14T08:09:24.790Z,947.72
2017-09-14T08:10:24.811Z,947.78
2017-09-14T08:11:24.835Z,947.76
2017-09-14T08:12:24.861Z,947.74
2017-09-14T08:13:24.887Z,947.8
2017-09-14T08:14:24.914Z,947.89
2017-09-14T08:15:24.938Z,947.88
2017-09-14T08:16:24.965Z,947.77
2017-09-14T08:17:25.018Z,947.74
2017-09-14T08:18:25.014Z,947.91
2017-09-14T08:19:25.041Z,948
2017-09-14T08:20:25.065Z,947.99
2017-09-14T08:21:25.092Z,948.02
2017-09-14T08:22:25.116Z,948.04
2017-09-14T08:23:25.141Z,948.11
2017-09-14T08:24:25.173Z,948.07
2017-09-14T08:25:25.193Z,947.97
2017-09-14T08:26:25.254Z,947.86
2017-09-14T08:27:25.267Z,947.87
2017-09-14T08:28:25.325Z,947.84
2017-09-14T08:29:25.292Z,947.86
2017-09-14T08:30:25.318Z,947.92
2017-09-14T08:31:25.344Z,947.9
2017-09-14T08:32:25.373Z,947.92
2017-09-14T08:33:25.395Z,948.02
2017-09-14T08:34:25.421Z,948.01
2017-09-14T08:35:25.444Z,947.89
2017-09-14T08:36:25.470Z,947.89
2017-09-14T08:37:25.494Z,947.93
2017-09-14T08:38:25.520Z,947.96
2017-09-14T08:39:25.555Z,947.98
2017-09-14T08:40:25.567Z,948.09
2017-09-14T08:41:25.593Z,948.14
2017-09-14T08:42:25.615Z,948.21
2017-09-14T08:43:25.643Z,948.32
2017-09-14T08:44:25.669Z,948.28
2017-09-14T08:45:25.691Z,948.18
2017-09-14T08:46:25.713Z,948.06
2017-09-14T08:47:25.737Z,948.01
2017-09-14T08:48:25.766Z,948.03
2017-09-14T08:49:25.789Z,948.23
2017-09-14T08:50:25.813Z,948.4
2017-09-14T08:51:25.840Z,948.38
2017-09-14T08:52:25.858Z,948.41
2017-09-14T08:53:25.885Z,948.43
2017-09-14T08:54:25.907Z,948.48
2017-09-14T08:55:25.933Z,948.63
2017-09-14T08:56:25.957Z,948.69
2017-09-14T08:57:25.980Z,948.69
2017-09-14T08:58:26.052Z,948.64
2017-09-14T08:59:26.034Z,948.49
2017-09-14T09:00:26.050Z,948.5
2017-09-14T09:01:26.076Z,948.59
2017-09-14T09:02:26.102Z,948.64
2017-09-14T09:03:26.122Z,948.77
2017-09-14T09:04:26.147Z,948.87
2017-09-14T09:05:26.171Z,948.98
2017-09-14T09:06:26.192Z,948.96
2017-09-14T09:07:26.222Z,949
2017-09-14T09:08:26.240Z,948.9
2017-09-14T09:09:26.262Z,948.8
2017-09-14T09:10:26.286Z,948.78
2017-09-14T09:11:26.312Z,948.78
2017-09-14T09:12:26.335Z,948.75
2017-09-14T09:13:26.359Z,948.77
2017-09-14T09:14:26.380Z,948.91
2017-09-14T09:15:26.413Z,949.05
2017-09-14T09:16:26.426Z,949.08
2017-09-14T09:17:26.450Z,949.07
2017-09-14T09:18:26.474Z,948.93
2017-09-14T09:19:26.496Z,948.96
2017-09-14T09:20:26.519Z,949.23
2017-09-14T09:21:26.543Z,949.41
2017-09-14T09:22:26.566Z,949.45
2017-09-14T09:23:26.589Z,949.49
2017-09-14T09:24:26.633Z,949.54
2017-09-14T09:25:26.636Z,949.6
2017-09-14T09:26:26.658Z,949.62
2017-09-14T09:27:26.681Z,949.59
2017-09-14T09:28:26.705Z,949.56
2017-09-14T09:29:26.728Z,949.51
2017-09-14T09:30:26.748Z,949.52
2017-09-14T09:31:26.771Z,949.47
2017-09-14T09:32:26.795Z,949.52
2017-09-14T09:33:26.825Z,949.52
2017-09-14T09:34:26.840Z,949.55
2017-09-14T09:35:26.861Z,949.62
2017-09-14T09:36:26.885Z,949.7
2017-09-14T09:37:26.908Z,949.72
2017-09-14T09:38:26.931Z,949.82
2017-09-14T09:39:26.958Z,949.86
2017-09-14T09:40:26.973Z,949.99
2017-09-14T09:41:27.001Z,950.06
2017-09-14T09:42:27.024Z,950.1
2017-09-14T09:43:27.040Z,950.07
2017-09-14T09:44:27.063Z,950.07
2017-09-14T09:45:27.134Z,950.03
2017-09-14T09:46:27.107Z,950.04
2017-09-14T09:47:27.143Z,949.99
2017-09-14T09:48:27.159Z,950.01
2017-09-14T09:49:27.193Z,949.95
2017-09-14T09:50:27.198Z,949.92
2017-09-14T09:51:27.216Z,949.93
2017-09-14T09:52:27.243Z,949.89
2017-09-14T09:53:27.261Z,949.98
2017-09-14T09:54:27.283Z,949.99
2017-09-14T09:55:27.309Z,949.97
2017-09-14T09:56:27.333Z,949.94
2017-09-14T09:57:27.356Z,949.97
2017-09-14T09:58:27.373Z,949.98
2017-09-14T09:59:27.399Z,949.96
2017-09-14T10:00:27.467Z,949.94
2017-09-14T10:01:27.437Z,949.98
2017-09-14T10:02:27.463Z,950.07
2017-09-14T10:03:27.483Z,950.27
2017-09-14T10:04:27.505Z,950.26
2017-09-14T10:05:27.528Z,950.23
2017-09-14T10:06:27.550Z,950.21
2017-09-14T10:07:27.596Z,950.27
2017-09-14T10:08:27.598Z,950.35
2017-09-14T10:09:27.618Z,950.4
2017-09-14T10:10:27.642Z,950.39
2017-09-14T10:11:27.661Z,950.43
2017-09-14T10:12:27.681Z,950.47
2017-09-14T10:13:27.703Z,950.54
2017-09-14T10:14:27.728Z,950.62
2017-09-14T10:15:27.748Z,950.63
2017-09-14T10:16:27.770Z,950.69
2017-09-14T10:17:27.792Z,950.76
2017-09-14T10:18:27.820Z,950.77
2017-09-14T10:19:27.835Z,950.74
2017-09-14T10:20:27.857Z,950.71
2017-09-14T10:21:27.881Z,950.74
2017-09-14T10:22:27.904Z,950.71
2017-09-14T10:23:27.923Z,950.84
2017-09-14T10:24:27.944Z,950.87
2017-09-14T10:25:27.965Z,950.82
2017-09-14T10:26:27.987Z,950.82
2017-09-14T10:27:28.013Z,950.84
2017-09-14T10:28:28.031Z,950.84
2017-09-14T10:29:28.059Z,950.85
2017-09-14T10:30:28.072Z,950.88
2017-09-14T10:31:28.095Z,950.9
2017-09-14T10:32:28.117Z,950.94
2017-09-14T10:33:28.186Z,950.94
2017-09-14T10:34:28.159Z,950.95
2017-09-14T10:35:28.187Z,950.95
2017-09-14T10:36:28.201Z,951.04
2017-09-14T10:37:28.221Z,950.95
2017-09-14T10:38:28.242Z,950.85
2017-09-14T10:39:28.262Z,950.91
2017-09-14T10:40:28.287Z,950.82
2017-09-14T10:41:28.304Z,950.79
2017-09-14T10:42:28.327Z,950.72
2017-09-14T10:43:28.348Z,950.78
2017-09-14T10:44:28.369Z,950.92
2017-09-14T10:45:28.388Z,950.87
2017-09-14T10:46:28.412Z,950.96
2017-09-14T10:47:28.432Z,950.98
2017-09-14T10:48:28.504Z,951.08
2017-09-14T10:49:28.472Z,951.1
2017-09-14T10:50:28.493Z,951.18
2017-09-14T10:51:28.513Z,951.01
2017-09-14T10:52:28.536Z,951.22
2017-09-14T10:53:28.554Z,951.28
2017-09-14T10:54:28.575Z,951.3
2017-09-14T10:55:28.596Z,951.42
2017-09-14T10:56:28.615Z,951.37
2017-09-14T10:57:28.636Z,951.44
2017-09-14T10:58:28.656Z,951.45
2017-09-14T10:59:28.677Z,951.52
2017-09-14T11:00:28.695Z,951.56
2017-09-14T11:01:28.716Z,951.69
2017-09-14T11:02:28.740Z,951.7
2017-09-14T11:03:28.811Z,951.81
2017-09-14T11:04:28.777Z,951.64
2017-09-14T11:05:28.800Z,951.67
2017-09-14T11:06:28.817Z,951.67
2017-09-14T11:07:28.838Z,951.71
2017-09-14T11:08:28.857Z,951.72
2017-09-14T11:09:28.882Z,951.7
2017-09-14T11:10:28.946Z,951.69
2017-09-14T11:11:28.934Z,951.73
2017-09-14T11:12:28.936Z,951.85
2017-09-14T11:13:28.956Z,951.91
2017-09-14T11:14:28.980Z,951.92
2017-09-14T11:15:28.994Z,952.04
2017-09-14T11:16:29.014Z,952.05
2017-09-14T11:17:29.032Z,952
2017-09-14T11:18:29.103Z,952.04
2017-09-14T11:19:29.072Z,952.05
2017-09-14T11:20:29.090Z,951.98
2017-09-14T11:21:29.120Z,952.03
2017-09-14T11:22:29.132Z,952.1
2017-09-14T11:23:29.150Z,952.09
2017-09-14T11:24:29.168Z,952.09
2017-09-14T11:25:29.189Z,952.14
2017-09-14T11:26:29.580Z,952.12
2017-09-14T11:27:29.586Z,952.18
2017-09-14T11:28:29.245Z,952.22
2017-09-14T11:29:29.270Z,952.23
2017-09-14T11:30:29.286Z,952.25
2017-09-14T11:31:29.305Z,952.31
2017-09-14T11:32:29.322Z,952.34
2017-09-14T11:33:29.393Z,952.37
2017-09-14T11:34:29.362Z,952.38
2017-09-14T11:35:29.378Z,952.43
2017-09-14T11:36:29.401Z,952.37
2017-09-14T11:37:29.418Z,952.4
2017-09-14T11:38:29.438Z,952.44
2017-09-14T11:39:29.457Z,952.44
2017-09-14T11:40:29.481Z,952.49
2017-09-14T11:41:29.506Z,952.52
2017-09-14T11:42:29.557Z,952.53
2017-09-14T11:43:29.532Z,952.48
2017-09-14T11:44:29.552Z,952.53
2017-09-14T11:45:29.571Z,952.56
2017-09-14T11:46:29.589Z,952.61
2017-09-14T11:47:29.609Z,952.52
2017-09-14T11:48:29.630Z,952.58
2017-09-14T11:49:29.720Z,952.54
2017-09-14T11:50:29.667Z,952.55
2017-09-14T11:51:29.684Z,952.51
2017-09-14T11:52:29.704Z,952.55
2017-09-14T11:53:29.727Z,952.55
2017-09-14T11:54:29.750Z,952.53
2017-09-14T11:55:29.761Z,952.56
2017-09-14T11:56:29.793Z,952.51
2017-09-14T11:57:29.797Z,952.39
2017-09-14T11:58:29.816Z,952.51
2017-09-14T11:59:29.835Z,952.43
2017-09-14T12:00:29.858Z,952.41
2017-09-14T12:01:29.873Z,952.36
2017-09-14T12:02:29.892Z,952.46
2017-09-14T12:03:29.913Z,952.48
2017-09-14T12:04:29.931Z,952.42
2017-09-14T12:05:29.950Z,952.54
2017-09-14T12:06:29.973Z,952.52
2017-09-14T12:07:30.036Z,952.55
2017-09-14T12:08:30.010Z,952.6
2017-09-14T12:09:30.026Z,952.64
2017-09-14T12:10:30.046Z,952.77
2017-09-14T12:11:30.070Z,952.67
2017-09-14T12:12:30.080Z,952.72
2017-09-14T12:13:30.102Z,952.69
2017-09-14T12:14:30.121Z,952.66
2017-09-14T12:15:30.132Z,952.76
2017-09-14T12:16:30.160Z,952.87
2017-09-14T12:17:30.178Z,952.59
2017-09-14T12:18:30.192Z,953
2017-09-14T12:19:30.208Z,953
2017-09-14T12:20:30.226Z,952.97
2017-09-14T12:21:30.244Z,952.89
2017-09-14T12:22:30.264Z,952.98
2017-09-14T12:23:30.280Z,953.09
2017-09-14T12:24:30.300Z,953.06
2017-09-14T12:25:30.369Z,953.1
2017-09-14T12:26:30.355Z,953
2017-09-14T12:27:30.364Z,953.16
2017-09-14T12:28:30.374Z,953.18
2017-09-14T12:29:30.392Z,953.21
2017-09-14T12:30:30.408Z,953.2
2017-09-14T12:31:30.426Z,953.08